Time;durP1;ratioP1;P1;durP2;ratioP2;P2;SDS_P1;SDS_P2;PMS_P1;PMS_P2;Temp;Humidity;BMP_temperature;BMP_pressure;BME280_temperature;BME280_humidity;BME280_pressure;Samples;Min_cycle;Max_cycle;Signal;HPM_P1;HPM_P2
2021/10/24 00:01:48;;;;;;;12.90;8.60;;;5.00;99.90;;;;;;5092407;28;20451;-58
2021/10/24 00:04:15;;;;;;;13.53;9.10;;;5.00;99.90;;;;;;5092730;28;20445;-58
2021/10/24 00:06:43;;;;;;;11.57;9.20;;;5.00;99.90;;;;;;5091453;28;20947;-58
2021/10/24 00:09:10;;;;;;;15.50;9.70;;;5.00;99.90;;;;;;5091883;28;20911;-58
2021/10/24 00:11:37;;;;;;;15.40;10.03;;;5.00;99.90;;;;;;5092150;28;20514;-58
2021/10/24 00:14:07;;;;;;;19.73;10.73;;;5.00;99.90;;;;;;5092660;28;20460;-58
2021/10/24 00:16:33;;;;;;;15.53;10.90;;;4.80;99.90;;;;;;5092058;28;20456;-58
2021/10/24 00:19:02;;;;;;;19.33;11.70;;;4.80;99.90;;;;;;5092116;28;20490;-58
2021/10/24 00:21:29;;;;;;;16.87;10.53;;;4.90;99.90;;;;;;5087383;28;20454;-59
2021/10/24 00:23:57;;;;;;;16.90;10.47;;;4.90;99.90;;;;;;5071920;28;20484;-58
2021/10/24 00:26:24;;;;;;;18.67;10.87;;;4.90;99.90;;;;;;5072223;28;20447;-58
2021/10/24 00:28:51;;;;;;;17.23;10.80;;;4.90;99.90;;;;;;5072901;28;20474;-59
2021/10/24 00:31:18;;;;;;;15.63;10.60;;;4.90;99.90;;;;;;5088152;28;20459;-59
2021/10/24 00:33:45;;;;;;;17.03;9.90;;;4.90;99.90;;;;;;5091403;28;20495;-58
2021/10/24 00:36:13;;;;;;;18.10;10.50;;;4.90;99.90;;;;;;5092192;28;20497;-58
2021/10/24 00:38:40;;;;;;;15.83;9.97;;;4.90;99.90;;;;;;5092039;28;20914;-58
2021/10/24 00:41:07;;;;;;;11.60;8.80;;;4.70;99.90;;;;;;5091518;28;20959;-58
2021/10/24 00:43:34;;;;;;;15.73;10.07;;;4.80;99.90;;;;;;5092058;28;20509;-58
2021/10/24 00:46:01;;;;;;;17.87;10.80;;;4.80;99.90;;;;;;5091905;28;20447;-58
2021/10/24 00:48:28;;;;;;;14.33;9.70;;;4.80;99.90;;;;;;5084584;28;20531;-58
2021/10/24 00:50:55;;;;;;;13.90;9.87;;;4.70;99.90;;;;;;5084117;28;20519;-58
2021/10/24 00:53:24;;;;;;;17.17;9.33;;;4.70;99.90;;;;;;5092194;28;20452;-58
2021/10/24 00:55:51;;;;;;;14.27;9.47;;;4.70;99.90;;;;;;5091272;28;20481;-58
2021/10/24 00:58:19;;;;;;;14.30;9.15;;;4.70;99.90;;;;;;5094111;28;20508;-58
2021/10/24 01:00:47;;;;;;;16.07;10.23;;;4.80;99.90;;;;;;5091341;28;20450;-59
2021/10/24 01:03:14;;;;;;;17.90;11.00;;;4.80;99.90;;;;;;5101184;28;20445;-58
2021/10/24 01:05:43;;;;;;;18.27;11.17;;;4.70;99.90;;;;;;5081250;28;20507;-57
2021/10/24 01:08:10;;;;;;;15.90;10.67;;;4.70;99.90;;;;;;5093102;28;20905;-58
2021/10/24 01:10:42;;;;;;;19.00;9.70;;;4.70;99.90;;;;;;5095287;28;20454;-58
2021/10/24 01:13:09;;;;;;;11.57;7.67;;;4.70;99.90;;;;;;5092798;28;20446;-59
2021/10/24 01:15:36;;;;;;;11.97;7.77;;;4.70;99.90;;;;;;5095862;28;20445;-59
2021/10/24 01:18:03;;;;;;;13.67;7.80;;;4.70;99.90;;;;;;5095936;28;20462;-58
2021/10/24 01:20:31;;;;;;;19.23;8.70;;;4.70;99.90;;;;;;5090055;28;20477;-58
2021/10/24 01:22:59;;;;;;;13.40;8.60;;;4.70;99.90;;;;;;5095652;28;20951;-59
2021/10/24 01:25:26;;;;;;;11.67;7.87;;;4.70;99.90;;;;;;5099180;28;20449;-58
2021/10/24 01:27:54;;;;;;;9.77;7.20;;;4.70;99.90;;;;;;5116009;28;20477;-58
2021/10/24 01:30:22;;;;;;;12.20;7.20;;;4.70;99.90;;;;;;5108173;28;20477;-58
2021/10/24 01:32:49;;;;;;;10.03;6.80;;;4.70;99.90;;;;;;5095698;28;20450;-58
2021/10/24 01:35:16;;;;;;;7.20;5.17;;;4.70;99.90;;;;;;5100342;28;20451;-59
2021/10/24 01:37:45;;;;;;;13.53;5.97;;;4.40;99.90;;;;;;5102655;28;21053;-58
2021/10/24 01:40:16;;;;;;;8.43;5.33;;;4.20;99.90;;;;;;5096348;28;20498;-58
2021/10/24 01:42:52;;;;;;;9.00;4.90;;;4.10;99.90;;;;;;5095561;28;20437;-58
2021/10/24 01:45:22;;;;;;;6.70;4.87;;;4.00;99.90;;;;;;5095450;28;20448;-59
2021/10/24 01:47:50;;;;;;;5.40;4.60;;;4.20;99.90;;;;;;5094224;28;20474;-58
2021/10/24 01:50:18;;;;;;;5.60;4.00;;;4.30;99.90;;;;;;5096049;28;20446;-58
2021/10/24 01:52:47;;;;;;;7.13;4.47;;;4.40;99.90;;;;;;5096998;28;21010;-58
2021/10/24 01:55:16;;;;;;;7.10;3.83;;;4.40;99.90;;;;;;5115574;28;20532;-58
2021/10/24 01:57:46;;;;;;;5.70;4.07;;;4.50;99.90;;;;;;5102350;28;20469;-58
2021/10/24 02:00:16;;;;;;;6.80;4.60;;;4.40;99.90;;;;;;5094778;28;20541;-58
2021/10/24 02:02:43;;;;;;;5.80;3.40;;;4.40;99.90;;;;;;5094338;28;20448;-58
2021/10/24 02:05:10;;;;;;;4.17;3.30;;;4.40;99.90;;;;;;5095173;28;20441;-58
2021/10/24 02:07:37;;;;;;;6.10;3.27;;;4.30;99.90;;;;;;5094541;28;20531;-58
2021/10/24 02:10:05;;;;;;;4.33;3.40;;;4.30;99.90;;;;;;5094687;28;20495;-58
2021/10/24 02:12:34;;;;;;;5.00;3.40;;;4.40;99.90;;;;;;5094601;28;20457;-58
2021/10/24 02:15:01;;;;;;;5.07;3.70;;;4.40;99.90;;;;;;5094808;28;20447;-58
2021/10/24 02:17:28;;;;;;;9.07;4.33;;;4.30;99.90;;;;;;5093409;28;20542;-59
2021/10/24 02:19:55;;;;;;;6.60;4.40;;;4.30;99.90;;;;;;5094800;28;20547;-58
2021/10/24 02:22:22;;;;;;;7.83;4.40;;;4.20;99.90;;;;;;5094257;28;20483;-58
2021/10/24 02:24:49;;;;;;;7.30;4.37;;;4.30;99.90;;;;;;5093335;28;20942;-58
2021/10/24 02:27:16;;;;;;;5.93;4.00;;;4.40;99.90;;;;;;5101188;28;21002;-58
2021/10/24 02:29:45;;;;;;;4.70;3.87;;;4.30;99.90;;;;;;5094289;28;20489;-58
2021/10/24 02:32:12;;;;;;;7.93;4.30;;;4.40;99.90;;;;;;5078822;28;20801;-58
2021/10/24 02:34:40;;;;;;;6.47;4.27;;;4.30;99.90;;;;;;5074116;28;20537;-59
2021/10/24 02:37:08;;;;;;;7.00;4.70;;;4.30;99.90;;;;;;5074462;28;20520;-58
2021/10/24 02:39:35;;;;;;;4.40;3.50;;;4.30;99.90;;;;;;5074084;28;20482;-58
2021/10/24 02:42:02;;;;;;;5.57;4.40;;;4.30;99.90;;;;;;5104251;28;20506;-58
2021/10/24 02:44:29;;;;;;;6.37;4.20;;;4.20;99.90;;;;;;5114343;28;20452;-58
2021/10/24 02:46:57;;;;;;;7.50;4.30;;;4.20;99.90;;;;;;5085377;28;20454;-58
2021/10/24 02:49:25;;;;;;;6.03;4.13;;;4.10;99.90;;;;;;5094826;28;20442;-58
2021/10/24 02:51:52;;;;;;;6.30;3.90;;;4.20;99.90;;;;;;5093191;28;21009;-58
2021/10/24 02:54:20;;;;;;;5.93;4.40;;;4.10;99.90;;;;;;5106216;28;20518;-59
2021/10/24 02:56:47;;;;;;;8.33;4.23;;;4.20;99.90;;;;;;5111362;28;20449;-58
2021/10/24 02:59:14;;;;;;;6.23;4.00;;;4.10;99.90;;;;;;5094870;28;20484;-58
2021/10/24 03:01:41;;;;;;;6.43;4.40;;;4.10;99.90;;;;;;5073464;28;20940;-58
2021/10/24 03:04:11;;;;;;;8.13;3.97;;;4.00;99.90;;;;;;5073647;28;20455;-58
2021/10/24 03:06:38;;;;;;;4.60;4.03;;;3.80;99.90;;;;;;5074233;28;20542;-58
2021/10/24 03:09:05;;;;;;;5.50;3.93;;;3.80;99.90;;;;;;5093567;28;20549;-58
2021/10/24 03:11:32;;;;;;;7.33;4.57;;;3.80;99.90;;;;;;5093402;28;20498;-58
2021/10/24 03:13:59;;;;;;;6.40;4.00;;;3.70;99.90;;;;;;5093475;28;20834;-58
2021/10/24 03:16:26;;;;;;;7.20;4.70;;;3.70;99.90;;;;;;5093441;28;20823;-58
2021/10/24 03:18:53;;;;;;;7.20;4.47;;;3.60;99.90;;;;;;5092968;28;21146;-58
2021/10/24 03:21:23;;;;;;;8.93;4.57;;;3.50;99.90;;;;;;5086513;28;20479;-58
2021/10/24 03:23:50;;;;;;;7.00;4.50;;;3.50;99.90;;;;;;5073329;28;20453;-58
2021/10/24 03:26:17;;;;;;;6.07;3.80;;;3.60;99.90;;;;;;5073274;28;20512;-58
2021/10/24 03:28:43;;;;;;;6.50;3.97;;;3.70;99.90;;;;;;5094827;28;20483;-58
2021/10/24 03:31:10;;;;;;;8.03;4.67;;;3.70;99.90;;;;;;5113296;28;20441;-58
2021/10/24 03:33:37;;;;;;;10.20;5.43;;;3.70;99.90;;;;;;5095842;28;20446;-57
2021/10/24 03:36:05;;;;;;;9.10;5.73;;;3.70;99.90;;;;;;5092855;28;20450;-58
2021/10/24 03:38:34;;;;;;;8.30;5.60;;;3.70;99.90;;;;;;5087864;28;20470;-58
2021/10/24 03:41:01;;;;;;;14.20;6.93;;;3.70;99.90;;;;;;5102821;28;20483;-58
2021/10/24 03:43:28;;;;;;;12.07;5.97;;;3.70;99.90;;;;;;5088219;28;20459;-58
2021/10/24 03:45:55;;;;;;;8.43;5.93;;;3.60;99.90;;;;;;5072628;28;20825;-58
2021/10/24 03:48:22;;;;;;;8.63;6.57;;;3.60;99.90;;;;;;5089933;28;20937;-58
2021/10/24 03:50:49;;;;;;;10.40;6.10;;;3.50;99.90;;;;;;5092148;28;20511;-58
2021/10/24 03:53:16;;;;;;;8.97;6.30;;;3.50;99.90;;;;;;5093097;28;20491;-58
2021/10/24 03:55:49;;;;;;;8.90;5.97;;;3.50;99.90;;;;;;5092853;28;20939;-58
2021/10/24 03:58:16;;;;;;;11.20;6.30;;;3.40;99.90;;;;;;5089287;28;20474;-58
2021/10/24 04:00:46;;;;;;;6.57;5.23;;;3.50;99.90;;;;;;5090597;28;20478;-58
2021/10/24 04:03:13;;;;;;;10.80;5.37;;;3.50;99.90;;;;;;5105344;28;20532;-58
2021/10/24 04:05:46;;;;;;;8.10;5.60;;;3.40;99.90;;;;;;5091918;28;20567;-58
2021/10/24 04:08:13;;;;;;;9.43;5.80;;;3.40;99.90;;;;;;5092364;28;20482;-58
2021/10/24 04:10:41;;;;;;;8.97;5.60;;;3.40;99.90;;;;;;5087701;28;20450;-57
2021/10/24 04:13:09;;;;;;;7.37;5.00;;;3.50;99.90;;;;;;5092337;28;20453;-58
2021/10/24 04:15:36;;;;;;;8.93;5.40;;;3.40;99.90;;;;;;5092467;28;20497;-57
2021/10/24 04:18:03;;;;;;;8.20;5.67;;;3.40;99.90;;;;;;5092296;28;20468;-57
2021/10/24 04:20:30;;;;;;;8.20;4.90;;;3.30;99.90;;;;;;5092121;28;20478;-57
2021/10/24 04:22:57;;;;;;;8.00;4.90;;;3.30;99.90;;;;;;5090691;28;20453;-58
2021/10/24 04:25:25;;;;;;;7.57;5.17;;;3.40;99.90;;;;;;5076281;28;20443;-58
2021/10/24 04:27:52;;;;;;;12.30;5.03;;;3.40;99.90;;;;;;5110448;22;20549;-56
2021/10/24 04:30:21;;;;;;;9.03;5.60;;;3.30;99.90;;;;;;5071355;28;20519;-53
2021/10/24 04:32:48;;;;;;;7.43;5.03;;;3.30;99.90;;;;;;5072071;28;20524;-54
2021/10/24 04:35:16;;;;;;;9.77;5.40;;;3.30;99.90;;;;;;5072220;28;20450;-53
2021/10/24 04:37:43;;;;;;;6.43;4.97;;;3.30;99.90;;;;;;5071074;28;20445;-53
2021/10/24 04:40:11;;;;;;;9.80;5.00;;;3.40;99.90;;;;;;5051398;28;20483;-53
2021/10/24 04:42:38;;;;;;;10.03;5.30;;;3.40;99.90;;;;;;5051577;28;20932;-53
2021/10/24 04:45:07;;;;;;;7.90;4.60;;;3.40;99.90;;;;;;5049513;28;20456;-52
2021/10/24 04:47:36;;;;;;;7.50;5.00;;;3.40;99.90;;;;;;5042199;28;20454;-53
2021/10/24 04:50:03;;;;;;;8.43;5.07;;;3.30;99.90;;;;;;5071563;28;20496;-53
2021/10/24 04:52:30;;;;;;;8.80;5.83;;;3.40;99.90;;;;;;5071420;28;20452;-53
2021/10/24 04:54:56;;;;;;;7.57;4.73;;;3.20;99.90;;;;;;5071731;28;20461;-53
2021/10/24 04:57:23;;;;;;;8.30;5.77;;;3.20;99.90;;;;;;5062682;28;20520;-53
2021/10/24 04:59:50;;;;;;;9.50;5.83;;;3.20;99.90;;;;;;5071420;28;21001;-53
2021/10/24 05:02:17;;;;;;;13.20;6.00;;;3.20;99.90;;;;;;5032600;28;20448;-53
2021/10/24 05:04:46;;;;;;;7.80;5.37;;;3.30;99.90;;;;;;5032259;28;20504;-53
2021/10/24 05:07:13;;;;;;;7.40;5.20;;;3.30;99.90;;;;;;5036268;28;20451;-53
2021/10/24 05:09:40;;;;;;;11.67;5.30;;;3.30;99.90;;;;;;5048120;28;20471;-53
2021/10/24 05:12:07;;;;;;;8.03;5.83;;;3.30;99.90;;;;;;5053852;28;20459;-53
2021/10/24 05:14:34;;;;;;;8.03;5.60;;;3.30;99.90;;;;;;5068942;28;20481;-53
2021/10/24 05:17:01;;;;;;;9.07;5.80;;;3.20;99.90;;;;;;5034880;28;20460;-53
2021/10/24 05:19:28;;;;;;;11.97;7.27;;;3.20;99.90;;;;;;5039197;28;20540;-54
2021/10/24 05:21:57;;;;;;;17.73;8.43;;;3.10;99.90;;;;;;5050930;28;21041;-54
2021/10/24 05:24:23;;;;;;;11.97;7.00;;;3.00;99.90;;;;;;5051280;28;20477;-54
2021/10/24 05:26:51;;;;;;;11.40;7.80;;;3.10;99.90;;;;;;5050353;28;20443;-53
2021/10/24 05:29:18;;;;;;;11.27;7.20;;;3.20;99.90;;;;;;5035039;28;20407;-54
2021/10/24 05:31:45;;;;;;;11.07;6.83;;;3.10;99.90;;;;;;5050770;28;20451;-53
2021/10/24 05:34:11;;;;;;;10.13;6.30;;;3.20;99.90;;;;;;5051183;28;21015;-53
2021/10/24 05:36:38;;;;;;;11.80;7.07;;;3.30;99.90;;;;;;5046707;28;20471;-54
2021/10/24 05:39:07;;;;;;;11.60;7.17;;;3.30;99.90;;;;;;5054081;28;20988;-54
2021/10/24 05:41:34;;;;;;;12.30;7.10;;;3.30;99.90;;;;;;5049259;28;20902;-54
2021/10/24 05:44:01;;;;;;;11.70;6.73;;;3.30;99.90;;;;;;5047663;28;20474;-53
2021/10/24 05:46:28;;;;;;;13.30;7.70;;;3.30;99.90;;;;;;5043163;28;20516;-53
2021/10/24 05:48:56;;;;;;;10.40;6.70;;;3.40;99.90;;;;;;5050265;28;20467;-53
2021/10/24 05:51:23;;;;;;;10.37;6.80;;;3.40;99.90;;;;;;5050603;28;20456;-52
2021/10/24 05:53:51;;;;;;;10.60;6.80;;;3.30;99.90;;;;;;5044686;28;20462;-53
2021/10/24 05:56:19;;;;;;;9.30;6.50;;;3.20;99.90;;;;;;5049775;28;20451;-53
2021/10/24 05:58:49;;;;;;;11.00;6.50;;;3.30;99.90;;;;;;5046663;28;20973;-53
2021/10/24 06:01:16;;;;;;;11.40;7.20;;;3.30;99.90;;;;;;5041616;28;21019;-54
2021/10/24 06:03:43;;;;;;;10.20;6.90;;;3.30;99.90;;;;;;5034786;28;20455;-53
2021/10/24 06:06:10;;;;;;;14.27;8.10;;;3.40;99.90;;;;;;5045364;28;20462;-54
2021/10/24 06:08:37;;;;;;;13.30;8.80;;;3.40;99.90;;;;;;5034400;28;20468;-54
2021/10/24 06:11:17;;;;;;;12.37;8.17;;;3.50;99.90;;;;;;5038634;28;20901;-54
2021/10/24 06:13:48;;;;;;;12.37;8.17;;;3.50;99.90;;;;;;5053928;28;20454;-54
2021/10/24 06:16:15;;;;;;;10.83;7.40;;;3.60;99.90;;;;;;5071904;28;20460;-54
2021/10/24 06:18:43;;;;;;;11.80;7.77;;;3.60;99.90;;;;;;5074146;28;20528;-54
2021/10/24 06:21:10;;;;;;;11.43;7.20;;;3.60;99.90;;;;;;5073972;28;20479;-54
2021/10/24 06:23:37;;;;;;;10.87;6.90;;;3.70;99.90;;;;;;5073899;28;20461;-54
2021/10/24 06:26:04;;;;;;;13.93;7.10;;;3.80;99.90;;;;;;5055043;28;20455;-53
2021/10/24 06:28:32;;;;;;;12.70;7.73;;;3.90;99.90;;;;;;5056856;28;20528;-54
2021/10/24 06:31:00;;;;;;;14.77;7.53;;;3.90;99.90;;;;;;5048556;28;20958;-54
2021/10/24 06:33:28;;;;;;;9.43;7.10;;;4.00;99.90;;;;;;5053246;28;20450;-54
2021/10/24 06:35:55;;;;;;;12.33;7.43;;;4.10;99.90;;;;;;5052382;28;20471;-54
2021/10/24 06:38:22;;;;;;;9.87;6.73;;;4.10;99.90;;;;;;5058017;28;20999;-54
2021/10/24 06:40:50;;;;;;;8.03;6.47;;;4.10;99.90;;;;;;5073368;28;20535;-54
2021/10/24 06:43:17;;;;;;;11.47;7.90;;;4.20;99.90;;;;;;5041538;28;20459;-54
2021/10/24 06:45:47;;;;;;;10.50;8.13;;;4.30;99.90;;;;;;5045205;28;20446;-53
2021/10/24 06:48:16;;;;;;;10.03;7.20;;;4.40;99.90;;;;;;5057313;28;20506;-53
2021/10/24 06:50:45;;;;;;;10.07;6.50;;;4.60;99.90;;;;;;5058057;28;20498;-54
2021/10/24 06:53:13;;;;;;;12.87;9.50;;;4.70;99.90;;;;;;5043888;28;20459;-54
2021/10/24 06:55:40;;;;;;;11.00;8.20;;;4.80;99.90;;;;;;5040052;28;20530;-53
2021/10/24 06:58:07;;;;;;;12.90;8.53;;;4.80;99.90;;;;;;5040886;28;20985;-53
2021/10/24 07:00:34;;;;;;;11.33;8.30;;;4.90;99.90;;;;;;5050587;28;20597;-52
2021/10/24 07:03:01;;;;;;;14.00;7.50;;;4.90;99.90;;;;;;5051550;28;20537;-53
2021/10/24 07:05:30;;;;;;;9.83;7.00;;;5.00;99.90;;;;;;5073142;28;20879;-53
2021/10/24 07:07:57;;;;;;;11.30;8.10;;;5.00;99.90;;;;;;5072947;28;20527;-53
2021/10/24 07:10:24;;;;;;;11.87;7.33;;;5.10;99.90;;;;;;5052848;28;20468;-53
2021/10/24 07:12:52;;;;;;;11.50;7.07;;;5.30;99.90;;;;;;5053422;28;20448;-54
2021/10/24 07:15:21;;;;;;;11.77;8.00;;;5.30;99.90;;;;;;5051283;28;20452;-54
2021/10/24 07:17:48;;;;;;;14.03;8.00;;;5.40;99.90;;;;;;5053115;28;21006;-53
2021/10/24 07:20:16;;;;;;;12.40;8.50;;;5.50;99.90;;;;;;5050894;28;20448;-53
2021/10/24 07:22:45;;;;;;;16.10;10.27;;;5.70;99.90;;;;;;5045292;28;20449;-53
2021/10/24 07:25:13;;;;;;;16.00;10.63;;;5.70;99.90;;;;;;5046259;28;20448;-54
2021/10/24 07:27:41;;;;;;;17.80;12.47;;;5.80;99.90;;;;;;5036248;28;20479;-53
2021/10/24 07:30:09;;;;;;;19.63;12.87;;;5.90;99.90;;;;;;5048683;28;20447;-53
2021/10/24 07:32:37;;;;;;;21.13;14.47;;;6.00;99.90;;;;;;5045704;28;20811;-53
2021/10/24 07:35:05;;;;;;;21.47;13.77;;;6.10;99.90;;;;;;5052322;28;20448;-54
2021/10/24 07:37:32;;;;;;;22.83;14.97;;;6.10;99.90;;;;;;5047829;28;20498;-54
2021/10/24 07:40:00;;;;;;;22.70;15.30;;;6.20;99.90;;;;;;5046441;28;20459;-54
2021/10/24 07:42:28;;;;;;;20.07;14.30;;;6.20;99.90;;;;;;5063945;28;21053;-54
2021/10/24 07:44:56;;;;;;;21.60;13.90;;;6.30;99.90;;;;;;5052310;28;20873;-53
2021/10/24 07:47:23;;;;;;;19.90;12.93;;;6.30;99.90;;;;;;5044608;28;20534;-55
2021/10/24 07:49:50;;;;;;;14.47;11.23;;;6.50;99.90;;;;;;5047614;28;20472;-55
2021/10/24 07:52:18;;;;;;;18.50;12.30;;;6.80;99.90;;;;;;5052320;28;20503;-54
2021/10/24 07:54:46;;;;;;;16.80;11.37;;;7.00;99.90;;;;;;5050720;28;20467;-55
2021/10/24 07:57:14;;;;;;;16.13;10.90;;;7.20;99.90;;;;;;5050589;28;20504;-54
2021/10/24 07:59:41;;;;;;;16.80;11.30;;;7.40;99.90;;;;;;5043491;28;20550;-55
2021/10/24 08:02:10;;;;;;;17.20;10.87;;;7.40;99.90;;;;;;5051716;28;20506;-55
2021/10/24 08:04:37;;;;;;;15.93;10.83;;;7.50;99.90;;;;;;5067216;28;20479;-55
2021/10/24 08:07:04;;;;;;;14.40;9.70;;;7.60;99.90;;;;;;5067636;28;20449;-55
2021/10/24 08:09:32;;;;;;;14.87;9.53;;;7.80;99.90;;;;;;5048962;28;20489;-55
2021/10/24 08:11:59;;;;;;;12.37;8.67;;;7.80;99.90;;;;;;5036964;28;21136;-55
2021/10/24 08:14:28;;;;;;;13.93;8.77;;;7.80;99.90;;;;;;5041764;28;20539;-55
2021/10/24 08:16:55;;;;;;;12.80;8.33;;;7.80;99.90;;;;;;5044677;28;20468;-55
2021/10/24 08:19:22;;;;;;;13.93;8.60;;;7.90;99.90;;;;;;5036746;28;20833;-55
2021/10/24 08:21:51;;;;;;;13.37;8.00;;;7.90;99.90;;;;;;5050548;28;20475;-55
2021/10/24 08:24:19;;;;;;;13.30;8.90;;;8.00;99.90;;;;;;5047677;28;20462;-55
2021/10/24 08:26:48;;;;;;;14.27;8.57;;;8.00;99.90;;;;;;5050558;28;20542;-55
2021/10/24 08:29:15;;;;;;;12.80;8.80;;;8.10;99.90;;;;;;5034973;28;20490;-55
2021/10/24 08:31:49;;;;;;;14.67;9.73;;;8.20;99.90;;;;;;5039197;28;20865;-55
2021/10/24 08:34:17;;;;;;;15.70;9.27;;;8.10;99.90;;;;;;5044241;28;20504;-56
2021/10/24 08:36:44;;;;;;;15.30;9.30;;;8.30;99.90;;;;;;5048342;28;20432;-56
2021/10/24 08:39:13;;;;;;;14.20;9.57;;;8.50;99.90;;;;;;5034724;28;20467;-55
2021/10/24 08:41:44;;;;;;;13.03;8.07;;;8.90;99.90;;;;;;5046686;28;20483;-54
2021/10/24 08:44:12;;;;;;;10.33;8.23;;;9.50;99.90;;;;;;5047352;28;20459;-56
2021/10/24 08:46:39;;;;;;;12.77;8.77;;;9.80;99.90;;;;;;5049335;28;20870;-56
2021/10/24 08:49:09;;;;;;;12.60;8.53;;;10.40;99.90;;;;;;5040509;28;20568;-56
2021/10/24 08:51:37;;;;;;;11.17;7.80;;;11.10;99.90;;;;;;5034830;28;20453;-56
2021/10/24 08:54:04;;;;;;;12.07;8.57;;;11.70;99.90;;;;;;5031355;28;20489;-56
2021/10/24 08:56:32;;;;;;;11.00;8.23;;;11.50;99.90;;;;;;5030991;28;21032;-55
2021/10/24 08:58:59;;;;;;;12.37;8.43;;;11.80;99.90;;;;;;5038692;28;20481;-56
2021/10/24 09:01:26;;;;;;;11.63;7.80;;;12.30;99.90;;;;;;5049131;28;20476;-56
2021/10/24 09:04:05;;;;;;;10.33;8.13;;;12.40;99.90;;;;;;5046580;28;20513;-55
2021/10/24 09:06:52;;;;;;;10.50;7.60;;;12.50;99.90;;;;;;5035884;28;20451;-55
2021/10/24 09:09:21;;;;;;;9.97;7.60;;;12.70;99.90;;;;;;5051116;28;21061;-56
2021/10/24 09:11:54;;;;;;;13.97;8.47;;;12.90;99.90;;;;;;5045059;28;20807;-54
2021/10/24 09:14:52;;;;;;;12.00;8.27;;;13.50;99.90;;;;;;5031732;28;20453;-55
2021/10/24 09:17:22;;;;;;;11.50;8.57;;;13.60;99.90;;;;;;4969997;28;20461;-55
2021/10/24 09:19:52;;;;;;;10.23;7.00;;;13.50;99.90;;;;;;5033999;28;20491;-55
2021/10/24 09:22:24;;;;;;;11.87;9.13;;;13.70;99.90;;;;;;5040787;28;20535;-55
2021/10/24 09:25:13;;;;;;;8.73;7.70;;;13.90;99.90;;;;;;5032211;28;20499;-54
2021/10/24 09:27:50;;;;;;;11.07;7.90;;;14.20;99.90;;;;;;5043461;28;20535;-55
2021/10/24 09:30:23;;;;;;;12.93;8.50;;;14.40;99.90;;;;;;5034957;28;20448;-55
2021/10/24 09:32:56;;;;;;;12.17;8.87;;;14.10;99.90;;;;;;5039978;28;20502;-55
2021/10/24 09:35:25;;;;;;;8.53;7.73;;;14.60;99.90;;;;;;5047916;28;20451;-56
2021/10/24 09:37:54;;;;;;;8.83;7.60;;;14.90;99.90;;;;;;5046663;28;21058;-55
2021/10/24 09:40:27;;;;;;;10.20;7.60;;;14.50;99.90;;;;;;5034395;28;20510;-56
2021/10/24 09:43:13;;;;;;;9.90;8.07;;;14.20;99.90;;;;;;5034118;28;20480;-56
2021/10/24 09:45:44;;;;;;;9.27;6.73;;;13.80;99.90;;;;;;5047399;28;20540;-56
2021/10/24 09:48:13;;;;;;;13.67;9.43;;;14.20;99.90;;;;;;5053445;28;20475;-58
2021/10/24 09:50:46;;;;;;;14.27;9.77;;;14.30;99.90;;;;;;5034256;28;20450;-55
2021/10/24 09:53:20;;;;;;;10.40;7.73;;;14.00;99.90;;;;;;5035141;28;20449;-56
2021/10/24 09:56:05;;;;;;;10.67;7.70;;;14.20;99.90;;;;;;5033907;28;20958;-56
2021/10/24 09:58:33;;;;;;;15.97;12.17;;;14.20;99.90;;;;;;5041955;28;20474;-56
2021/10/24 10:01:01;;;;;;;10.50;8.40;;;14.40;99.90;;;;;;5052032;28;21023;-56
2021/10/24 10:03:29;;;;;;;11.90;8.90;;;14.90;99.90;;;;;;5035523;28;20542;-56
2021/10/24 10:05:57;;;;;;;10.50;8.43;;;15.00;99.90;;;;;;5047482;28;20934;-55
2021/10/24 10:08:27;;;;;;;10.13;8.53;;;15.20;99.90;;;;;;5033994;28;20472;-56
2021/10/24 10:10:59;;;;;;;9.80;7.57;;;15.10;99.90;;;;;;5034968;28;20506;-56
2021/10/24 10:13:28;;;;;;;9.13;7.37;;;15.40;99.90;;;;;;5034937;28;20456;-56
2021/10/24 10:16:02;;;;;;;9.20;7.27;;;15.80;99.90;;;;;;5053942;28;20451;-57
2021/10/24 10:18:29;;;;;;;12.47;7.70;;;16.20;99.90;;;;;;5053201;28;20472;-58
2021/10/24 10:21:02;;;;;;;15.23;8.60;;;16.00;99.90;;;;;;5044367;28;20448;-58
2021/10/24 10:23:40;;;;;;;9.40;7.63;;;15.50;99.90;;;;;;5047241;28;21081;-57
2021/10/24 10:26:33;;;;;;;10.40;8.20;;;14.80;99.90;;;;;;5035348;28;20506;-57
2021/10/24 10:29:00;;;;;;;10.63;7.83;;;14.60;99.90;;;;;;5041966;28;20881;-57
2021/10/24 10:31:27;;;;;;;11.10;7.87;;;14.60;99.90;;;;;;5047457;28;20449;-56
2021/10/24 10:33:59;;;;;;;11.10;8.60;;;14.20;99.90;;;;;;5033489;28;20623;-57
2021/10/24 10:39:40;;;;;;;10.67;7.67;;;12.80;99.90;;;;;;5113192;22;20567;-60
2021/10/24 10:42:43;;;;;;;9.93;7.80;;;12.50;99.90;;;;;;5089792;28;20479;-61
2021/10/24 10:45:35;;;;;;;9.03;6.80;;;12.60;99.90;;;;;;5081358;28;20450;-61
2021/10/24 10:48:06;;;;;;;9.50;7.57;;;12.90;99.90;;;;;;5069513;28;20475;-61
2021/10/24 10:50:53;;;;;;;11.43;7.73;;;13.30;99.90;;;;;;5073506;28;20450;-61
2021/10/24 10:54:02;;;;;;;11.37;8.60;;;13.40;99.90;;;;;;5071548;28;20451;-61
2021/10/24 10:56:47;;;;;;;12.83;8.07;;;13.20;99.90;;;;;;5059324;28;21304;-61
2021/10/24 10:59:16;;;;;;;12.23;8.80;;;13.30;99.90;;;;;;5061742;28;20516;-61
2021/10/24 11:01:43;;;;;;;11.70;8.60;;;12.90;99.90;;;;;;5071775;28;20938;-60
2021/10/24 11:04:16;;;;;;;12.10;9.70;;;12.70;99.90;;;;;;5080285;28;20526;-61
2021/10/24 11:06:56;;;;;;;11.90;8.90;;;12.70;99.90;;;;;;5088422;28;20447;-61
2021/10/24 11:09:44;;;;;;;14.87;9.00;;;12.20;99.90;;;;;;5086675;28;20455;-61
2021/10/24 11:12:32;;;;;;;11.20;8.53;;;12.20;99.90;;;;;;5083381;28;20450;-60
2021/10/24 11:15:14;;;;;;;11.57;8.60;;;12.20;99.90;;;;;;5067487;28;20466;-61
2021/10/24 11:17:44;;;;;;;11.90;9.20;;;12.20;99.90;;;;;;5069097;28;20473;-61
2021/10/24 11:20:17;;;;;;;16.73;10.17;;;11.90;99.90;;;;;;5062241;28;20447;-61
2021/10/24 11:22:53;;;;;;;12.83;9.60;;;11.70;99.90;;;;;;5072147;28;20486;-61
2021/10/24 11:25:29;;;;;;;13.20;9.30;;;11.80;99.90;;;;;;5072322;28;20455;-60
2021/10/24 11:27:59;;;;;;;12.80;9.53;;;12.10;99.90;;;;;;5072375;28;20466;-60
2021/10/24 11:30:26;;;;;;;13.43;10.00;;;12.10;99.90;;;;;;5071720;28;20520;-60
2021/10/24 11:33:00;;;;;;;15.37;9.70;;;12.20;99.90;;;;;;5071000;28;20443;-61
2021/10/24 11:35:27;;;;;;;17.27;10.90;;;12.10;99.90;;;;;;5069042;28;20956;-60
2021/10/24 11:37:58;;;;;;;15.03;9.90;;;12.20;99.90;;;;;;5069408;28;20561;-60
2021/10/24 11:40:28;;;;;;;15.63;10.50;;;11.90;99.90;;;;;;5069456;28;20493;-60
2021/10/24 11:43:04;;;;;;;14.00;10.10;;;11.70;99.90;;;;;;5070922;28;20565;-60
2021/10/24 11:45:34;;;;;;;17.40;10.77;;;11.60;99.90;;;;;;5070428;28;20954;-59
2021/10/24 11:48:03;;;;;;;15.93;9.00;;;11.30;99.90;;;;;;5069352;28;20475;-59
2021/10/24 11:50:50;;;;;;;15.27;11.20;;;11.40;99.90;;;;;;5071263;28;20961;-59
2021/10/24 11:53:18;;;;;;;16.00;10.63;;;11.50;99.90;;;;;;5069181;28;20940;-59
2021/10/24 11:55:50;;;;;;;15.30;9.80;;;11.50;99.90;;;;;;5071914;28;21011;-60
2021/10/24 12:01:21;;;;;;;15.23;9.50;;;11.80;99.90;;;;;;5071859;28;20436;-60
2021/10/24 12:04:01;;;;;;;16.83;10.03;;;12.00;99.90;;;;;;5071607;28;20482;-60
2021/10/24 12:06:47;;;;;;;16.70;10.27;;;12.00;99.90;;;;;;5071762;28;20454;-59
2021/10/24 12:09:14;;;;;;;12.93;9.73;;;11.50;99.90;;;;;;5072276;28;20892;-60
2021/10/24 12:11:44;;;;;;;19.90;10.93;;;11.10;99.90;;;;;;5071471;28;20446;-59
2021/10/24 12:14:13;;;;;;;17.73;11.93;;;10.90;99.90;;;;;;5071863;28;20945;-60
2021/10/24 12:16:42;;;;;;;14.83;11.17;;;10.60;99.90;;;;;;5071235;28;20975;-60
2021/10/24 12:19:16;;;;;;;17.07;11.00;;;10.50;99.90;;;;;;5071484;28;20467;-60
2021/10/24 12:21:55;;;;;;;16.17;11.43;;;10.50;99.90;;;;;;5071109;28;20462;-60
2021/10/24 12:24:25;;;;;;;16.87;11.17;;;10.40;99.90;;;;;;5071501;28;20472;-60
2021/10/24 12:27:07;;;;;;;18.23;10.70;;;10.60;99.90;;;;;;5071364;28;20450;-60
2021/10/24 12:29:35;;;;;;;16.83;10.40;;;10.80;99.90;;;;;;5071423;28;20442;-59
2021/10/24 12:32:11;;;;;;;15.33;10.50;;;10.80;99.90;;;;;;5070783;28;20514;-60
2021/10/24 12:34:39;;;;;;;17.73;10.70;;;10.90;99.90;;;;;;5070981;28;20450;-60
2021/10/24 12:37:17;;;;;;;17.00;11.00;;;11.10;99.90;;;;;;5070954;28;21277;-60
2021/10/24 12:39:44;;;;;;;15.47;10.27;;;11.10;99.90;;;;;;5071214;28;20999;-60
2021/10/24 12:42:21;;;;;;;13.27;9.90;;;11.20;99.90;;;;;;5070746;28;20458;-60
2021/10/24 12:44:49;;;;;;;13.63;10.30;;;11.40;99.90;;;;;;5071602;28;20454;-60
2021/10/24 12:47:17;;;;;;;13.30;10.90;;;11.60;99.90;;;;;;5071547;28;20521;-60
2021/10/24 12:49:55;;;;;;;16.80;11.67;;;11.40;99.90;;;;;;5071454;28;20508;-60
2021/10/24 12:52:23;;;;;;;20.87;10.60;;;11.30;99.90;;;;;;5070834;28;20455;-60
2021/10/24 12:55:00;;;;;;;15.23;10.90;;;11.10;99.90;;;;;;5070767;28;20486;-60
2021/10/24 12:57:27;;;;;;;14.90;10.77;;;10.90;99.90;;;;;;5071406;28;20561;-59
2021/10/24 12:59:56;;;;;;;16.57;10.53;;;11.00;99.90;;;;;;5071474;28;20960;-60
2021/10/24 13:02:23;;;;;;;15.83;10.80;;;11.40;99.90;;;;;;5070366;28;20482;-60
2021/10/24 13:04:50;;;;;;;14.50;10.37;;;11.50;99.90;;;;;;5070152;28;20512;-61